Time;durP1;ratioP1;P1;durP2;ratioP2;P2;SDS_P1;SDS_P2;PMS_P1;PMS_P2;Temp;Humidity;BMP_temperature;BMP_pressure;BME280_temperature;BME280_humidity;BME280_pressure;Samples;Min_cycle;Max_cycle;Signal;HPM_P1;HPM_P2
2022/04/30 00:01:28;;;;;;;7.30;6.80;;;14.70;98.60;;;;;;10304193;28;20662;-82
2022/04/30 00:06:30;;;;;;;7.10;6.40;;;14.70;99.00;;;;;;10327712;28;20318;-82
2022/04/30 00:11:33;;;;;;;7.27;6.77;;;14.60;98.90;;;;;;10304443;28;20230;-82
2022/04/30 00:16:38;;;;;;;7.50;7.00;;;14.60;99.80;;;;;;10306058;28;20203;-82
2022/04/30 00:21:40;;;;;;;7.50;6.90;;;14.60;99.60;;;;;;10316625;28;20215;-80
2022/04/30 00:26:44;;;;;;;7.93;7.23;;;14.60;99.50;;;;;;10314537;28;20234;-82
2022/04/30 00:31:46;;;;;;;8.23;7.43;;;14.60;99.90;;;;;;10332262;28;20310;-81
2022/04/30 00:36:48;;;;;;;9.77;8.10;;;14.60;99.90;;;;;;10353520;28;20610;-80
2022/04/30 00:41:52;;;;;;;8.40;7.80;;;14.60;99.90;;;;;;10315707;28;20278;-81
2022/04/30 00:46:55;;;;;;;9.50;8.50;;;14.50;99.00;;;;;;10318440;28;20206;-81
2022/04/30 00:51:59;;;;;;;10.40;9.60;;;14.50;99.80;;;;;;10290913;28;20227;-81
2022/04/30 00:57:06;;;;;;;11.20;10.20;;;14.40;98.10;;;;;;10337948;28;20195;-80
2022/04/30 01:02:11;;;;;;;10.20;9.50;;;14.50;99.30;;;;;;10330049;28;20226;-80
2022/04/30 01:07:32;;;;;;;12.40;11.33;;;14.50;99.90;;;;;;10339616;28;20218;-80
2022/04/30 01:12:36;;;;;;;12.57;11.40;;;14.50;99.90;;;;;;10335306;28;20820;-81
2022/04/30 01:17:40;;;;;;;11.77;10.77;;;14.60;99.90;;;;;;10336523;28;20271;-81
2022/04/30 01:22:56;;;;;;;17.03;12.77;;;14.70;98.40;;;;;;10313083;28;20238;-82
2022/04/30 01:27:59;;;;;;;15.67;14.10;;;14.60;99.70;;;;;;10313063;28;20218;-81
2022/04/30 01:38:23;;;;;;;17.90;16.30;;;14.70;99.90;;;;;;10317347;28;20199;-82
2022/04/30 01:43:26;;;;;;;19.10;17.30;;;14.70;99.90;;;;;;10303096;28;20241;-81
2022/04/30 01:48:28;;;;;;;20.00;17.20;;;14.70;99.90;;;;;;10346138;28;20705;-81
2022/04/30 01:53:32;;;;;;;19.87;17.80;;;14.70;99.90;;;;;;10344202;28;20333;-81
2022/04/30 01:58:34;;;;;;;25.10;19.73;;;14.70;99.40;;;;;;10314385;28;20297;-81
2022/04/30 02:03:37;;;;;;;19.97;17.87;;;14.60;99.90;;;;;;10335491;28;20215;-80
2022/04/30 02:08:41;;;;;;;24.10;17.90;;;14.60;99.90;;;;;;10351744;28;20198;-80
2022/04/30 02:13:52;;;;;;;27.30;21.17;;;14.60;99.90;;;;;;10350417;28;20678;-80
2022/04/30 02:18:56;;;;;;;21.63;19.43;;;14.60;99.90;;;;;;10357992;28;20203;-80
2022/04/30 02:24:00;;;;;;;20.80;18.60;;;14.60;99.90;;;;;;10362881;28;20219;-80
2022/04/30 02:29:02;;;;;;;20.70;18.53;;;14.60;99.90;;;;;;10356317;28;20543;-80
2022/04/30 02:34:04;;;;;;;20.80;18.77;;;14.60;99.90;;;;;;10327485;28;20230;-80
2022/04/30 02:39:08;;;;;;;24.43;18.80;;;14.60;99.90;;;;;;10359191;28;20213;-81
2022/04/30 02:44:10;;;;;;;18.97;17.17;;;14.50;99.90;;;;;;10338498;28;20223;-80
2022/04/30 02:49:12;;;;;;;21.77;18.77;;;14.50;99.90;;;;;;10355443;28;20214;-80
2022/04/30 02:54:16;;;;;;;20.47;18.27;;;14.50;99.90;;;;;;10330244;28;20226;-80
2022/04/30 03:04:44;;;;;;;19.33;17.33;;;14.50;99.90;;;;;;10357562;28;20258;-80
2022/04/30 03:09:48;;;;;;;21.07;19.07;;;14.50;99.90;;;;;;10352305;28;20210;-80
2022/04/30 03:14:50;;;;;;;20.33;18.37;;;14.50;99.90;;;;;;10350954;28;20234;-80
2022/04/30 03:25:13;;;;;;;20.83;18.20;;;14.50;99.90;;;;;;10326348;28;20214;-80
2022/04/30 03:30:16;;;;;;;30.73;19.63;;;14.50;99.90;;;;;;10365850;28;20218;-80
2022/04/30 03:35:18;;;;;;;22.87;20.33;;;14.50;99.90;;;;;;10348452;28;20195;-80
2022/04/30 03:40:22;;;;;;;27.70;22.10;;;14.50;99.90;;;;;;10341561;28;20291;-81
2022/04/30 03:45:24;;;;;;;24.00;21.10;;;14.50;99.90;;;;;;10336551;28;20572;-82
2022/04/30 03:50:26;;;;;;;23.93;21.17;;;14.40;99.90;;;;;;10343372;28;20281;-82
2022/04/30 03:55:30;;;;;;;24.50;21.90;;;14.40;99.90;;;;;;10324057;28;20198;-82
2022/04/30 04:00:32;;;;;;;26.80;23.93;;;14.40;99.90;;;;;;10338469;28;20222;-82
2022/04/30 04:05:34;;;;;;;25.83;23.23;;;14.40;99.90;;;;;;10335648;28;20215;-81
2022/04/30 04:10:38;;;;;;;32.50;25.90;;;14.40;99.90;;;;;;10326205;28;20227;-82
2022/04/30 04:21:00;;;;;;;29.20;23.80;;;14.30;99.90;;;;;;10309418;28;20557;-81
2022/04/30 04:26:03;;;;;;;29.23;23.60;;;14.30;99.90;;;;;;10322140;28;20253;-82
2022/04/30 04:31:05;;;;;;;27.47;24.60;;;14.20;99.90;;;;;;10333592;28;20295;-82
2022/04/30 04:36:08;;;;;;;26.23;23.60;;;14.20;99.90;;;;;;10325809;28;20225;-82
2022/04/30 04:41:12;;;;;;;31.63;24.23;;;14.20;99.90;;;;;;10328926;28;20234;-81
2022/04/30 04:46:15;;;;;;;26.00;23.20;;;14.10;99.90;;;;;;10334886;28;20190;-82
2022/04/30 04:51:17;;;;;;;29.43;26.23;;;14.10;99.90;;;;;;10339043;28;20651;-82
2022/04/30 04:56:20;;;;;;;26.30;23.47;;;14.20;99.90;;;;;;10336106;28;20817;-82
2022/04/30 05:01:22;;;;;;;28.47;25.00;;;14.20;99.90;;;;;;10321199;28;20599;-81
2022/04/30 05:06:25;;;;;;;27.20;24.33;;;14.20;99.90;;;;;;10330002;28;20230;-82
2022/04/30 05:11:28;;;;;;;26.97;24.17;;;14.20;99.90;;;;;;10319912;28;20224;-80
2022/04/30 05:16:31;;;;;;;26.40;23.63;;;14.20;99.90;;;;;;10313220;28;20203;-80
2022/04/30 05:21:33;;;;;;;30.93;25.70;;;14.10;99.90;;;;;;10300753;28;20227;-81
2022/04/30 05:26:36;;;;;;;29.37;26.17;;;14.10;99.90;;;;;;10324726;28;20320;-81
2022/04/30 05:31:38;;;;;;;31.20;25.93;;;14.10;99.90;;;;;;10307509;28;20319;-82
2022/04/30 05:36:40;;;;;;;30.23;26.80;;;14.10;99.90;;;;;;10337577;28;20706;-79
2022/04/30 05:41:44;;;;;;;32.37;26.23;;;14.10;99.90;;;;;;10344713;28;20590;-80
2022/04/30 05:46:46;;;;;;;28.80;25.73;;;14.00;99.90;;;;;;10316254;28;20210;-80
2022/04/30 05:51:49;;;;;;;30.80;26.03;;;13.90;99.90;;;;;;10299909;28;20665;-80
2022/04/30 05:56:53;;;;;;;30.97;27.67;;;13.90;99.90;;;;;;10338896;28;20195;-80
2022/04/30 06:01:55;;;;;;;29.87;26.73;;;13.90;99.90;;;;;;10319951;28;20230;-81
2022/04/30 06:06:58;;;;;;;32.87;29.30;;;13.80;99.90;;;;;;10346407;28;20221;-79
2022/04/30 06:12:02;;;;;;;31.30;27.27;;;13.80;99.90;;;;;;10324798;28;20247;-82
2022/04/30 06:17:05;;;;;;;32.60;27.90;;;13.80;99.90;;;;;;10339181;28;20306;-82
2022/04/30 06:22:07;;;;;;;29.80;26.77;;;13.80;99.90;;;;;;10337906;28;20238;-81
2022/04/30 06:27:11;;;;;;;28.63;25.77;;;13.70;99.90;;;;;;10318171;28;20269;-80
2022/04/30 06:32:13;;;;;;;32.03;28.77;;;13.80;99.90;;;;;;10302002;28;20229;-80
2022/04/30 06:37:17;;;;;;;30.73;27.70;;;13.80;99.90;;;;;;10332504;28;20207;-81
2022/04/30 06:42:20;;;;;;;32.53;27.03;;;13.80;99.90;;;;;;10320893;28;20219;-79
2022/04/30 06:47:22;;;;;;;31.23;28.13;;;13.90;99.90;;;;;;10332245;28;20234;-80
2022/04/30 06:52:24;;;;;;;32.00;28.90;;;14.00;99.90;;;;;;10303314;28;20298;-80
2022/04/30 06:57:28;;;;;;;32.07;28.33;;;14.00;99.90;;;;;;10307483;28;20204;-80
2022/04/30 07:02:31;;;;;;;29.77;26.63;;;14.00;99.90;;;;;;10322926;28;20222;-81
2022/04/30 07:07:33;;;;;;;29.40;26.30;;;14.00;99.90;;;;;;10327027;28;20692;-80
2022/04/30 07:12:38;;;;;;;30.03;26.93;;;14.00;99.90;;;;;;10312840;28;20227;-79
2022/04/30 07:17:40;;;;;;;29.83;26.47;;;14.00;99.90;;;;;;10325935;28;20214;-82
2022/04/30 07:22:42;;;;;;;29.80;26.90;;;14.00;99.90;;;;;;10318326;28;20252;-80
2022/04/30 07:27:46;;;;;;;27.43;24.80;;;14.00;99.90;;;;;;10342879;28;20246;-80
2022/04/30 07:32:48;;;;;;;27.00;24.37;;;14.00;99.90;;;;;;10342205;28;20232;-81
2022/04/30 07:37:50;;;;;;;30.23;27.33;;;14.10;99.90;;;;;;10325390;28;20196;-82
2022/04/30 07:42:53;;;;;;;28.33;25.37;;;14.20;99.90;;;;;;10335518;28;20230;-82
2022/04/30 07:47:56;;;;;;;28.73;25.87;;;14.30;99.90;;;;;;10322007;28;20253;-82
2022/04/30 07:52:58;;;;;;;27.43;24.63;;;14.40;99.90;;;;;;10340403;28;20246;-82
2022/04/30 07:58:02;;;;;;;26.53;23.93;;;14.40;99.90;;;;;;10343692;28;20207;-81
2022/04/30 08:03:04;;;;;;;25.73;22.90;;;14.50;99.90;;;;;;10329325;28;20653;-79
2022/04/30 08:08:07;;;;;;;26.40;23.60;;;14.60;99.90;;;;;;10323629;28;20200;-79
2022/04/30 08:13:11;;;;;;;27.33;24.67;;;14.70;99.90;;;;;;10326821;28;20650;-80
2022/04/30 08:18:14;;;;;;;26.30;23.60;;;14.70;99.90;;;;;;10327842;28;20207;-81
2022/04/30 08:23:16;;;;;;;24.77;22.33;;;14.70;99.90;;;;;;10308646;28;20219;-81
2022/04/30 08:28:19;;;;;;;24.40;21.90;;;14.70;99.90;;;;;;10337037;28;20206;-80
2022/04/30 08:33:21;;;;;;;23.57;21.27;;;14.60;99.90;;;;;;10322381;28;20237;-81
2022/04/30 08:38:24;;;;;;;25.37;22.73;;;14.50;99.90;;;;;;10338167;28;20859;-81
2022/04/30 08:43:29;;;;;;;22.03;19.77;;;14.40;99.90;;;;;;10330275;28;20230;-81
2022/04/30 08:48:31;;;;;;;22.83;20.73;;;14.40;99.90;;;;;;10330105;28;20200;-81
2022/04/30 08:53:34;;;;;;;25.97;23.40;;;14.30;99.90;;;;;;10341490;28;20326;-82
2022/04/30 08:58:37;;;;;;;23.20;21.10;;;14.20;99.90;;;;;;10311581;28;20202;-80
2022/04/30 09:03:40;;;;;;;23.83;20.63;;;14.10;99.90;;;;;;10333036;28;20254;-82
2022/04/30 09:08:48;;;;;;;22.90;20.60;;;14.10;99.90;;;;;;10306135;28;20527;-81
2022/04/30 09:13:52;;;;;;;22.50;20.40;;;14.00;99.90;;;;;;10302342;28;20230;-81
2022/04/30 09:19:01;;;;;;;22.17;20.27;;;13.90;99.90;;;;;;10320020;28;20623;-81
2022/04/30 09:24:04;;;;;;;22.00;20.10;;;13.90;99.90;;;;;;10338315;28;20287;-80
2022/04/30 09:29:21;;;;;;;22.73;20.73;;;13.80;99.90;;;;;;10341401;28;20250;-80
2022/04/30 09:39:43;;;;;;;20.70;18.90;;;13.80;99.90;;;;;;10310888;28;20188;-80
2022/04/30 09:44:46;;;;;;;19.83;18.10;;;13.80;99.90;;;;;;10328444;28;20203;-81
2022/04/30 09:55:10;;;;;;;20.00;18.30;;;13.80;99.90;;;;;;10319619;28;20250;-81
2022/04/30 10:00:15;;;;;;;16.50;15.10;;;13.90;99.90;;;;;;10316069;28;20289;-81
2022/04/30 10:05:18;;;;;;;16.53;15.13;;;13.90;99.90;;;;;;10308019;28;20210;-81
2022/04/30 10:10:26;;;;;;;15.27;13.80;;;14.00;99.90;;;;;;10320512;28;20735;-79
2022/04/30 10:15:42;;;;;;;15.13;13.93;;;14.10;99.90;;;;;;10309846;28;20718;-80
2022/04/30 10:20:51;;;;;;;14.90;13.77;;;14.30;99.90;;;;;;10311496;28;20211;-79
2022/04/30 10:25:54;;;;;;;16.03;14.63;;;14.40;99.90;;;;;;10311356;28;20235;-81
2022/04/30 10:31:02;;;;;;;16.13;14.57;;;14.60;99.90;;;;;;10313335;28;20306;-80
2022/04/30 10:36:06;;;;;;;15.00;13.83;;;14.70;99.90;;;;;;10310121;28;20223;-80
2022/04/30 10:41:10;;;;;;;15.50;14.20;;;14.80;99.90;;;;;;10320514;28;20211;-79
2022/04/30 10:46:21;;;;;;;14.60;13.33;;;15.00;99.90;;;;;;10319094;28;20611;-79
2022/04/30 10:51:36;;;;;;;13.50;12.50;;;15.30;99.90;;;;;;10282089;28;20215;-78
2022/04/30 10:56:39;;;;;;;14.30;13.10;;;15.50;99.90;;;;;;10327969;28;20210;-78
2022/04/30 11:01:50;;;;;;;12.73;11.63;;;15.50;99.90;;;;;;10328478;28;20628;-78
2022/04/30 11:06:56;;;;;;;12.40;11.30;;;15.40;99.90;;;;;;10305504;28;20199;-78
2022/04/30 11:11:58;;;;;;;8.53;7.90;;;15.40;99.90;;;;;;10324486;28;20265;-78
2022/04/30 11:17:02;;;;;;;7.17;6.67;;;15.50;99.90;;;;;;10307644;28;20222;-77
2022/04/30 11:22:05;;;;;;;6.63;6.13;;;15.30;99.90;;;;;;10315875;28;20625;-77
2022/04/30 11:27:17;;;;;;;6.00;5.60;;;15.10;99.90;;;;;;10313828;28;20222;-78
2022/04/30 11:32:26;;;;;;;6.90;6.40;;;15.00;99.90;;;;;;10350931;23;20231;-81
2022/04/30 11:37:38;;;;;;;7.37;6.67;;;15.20;99.90;;;;;;10325119;28;20210;-81
2022/04/30 11:42:40;;;;;;;6.70;6.27;;;15.60;99.90;;;;;;10292222;28;20623;-81
2022/04/30 11:47:50;;;;;;;6.50;6.10;;;15.90;99.90;;;;;;10281865;28;20255;-81
2022/04/30 11:52:52;;;;;;;7.10;6.53;;;16.20;99.90;;;;;;10294605;28;20263;-80
2022/04/30 11:57:54;;;;;;;5.80;5.40;;;16.30;99.90;;;;;;10280185;28;20205;-81
2022/04/30 12:02:57;;;;;;;7.20;6.70;;;16.50;99.90;;;;;;10284800;28;20221;-81
2022/04/30 12:08:02;;;;;;;6.80;6.30;;;16.50;99.90;;;;;;10289275;28;20196;-81
2022/04/30 12:13:04;;;;;;;5.57;5.27;;;16.40;99.90;;;;;;10297999;28;20259;-80
2022/04/30 12:28:50;;;;;;;6.70;6.27;;;16.50;99.90;;;;;;10280296;28;20195;-82
2022/04/30 12:33:53;;;;;;;6.80;6.27;;;16.30;99.90;;;;;;10280958;28;20235;-81
2022/04/30 12:38:56;;;;;;;6.50;6.10;;;16.40;99.90;;;;;;10295292;28;20211;-82
2022/04/30 12:43:59;;;;;;;7.80;7.30;;;16.50;99.90;;;;;;10307333;28;20700;-82
2022/04/30 12:49:02;;;;;;;6.70;6.20;;;16.40;99.90;;;;;;10275589;28;20307;-81
2022/04/30 12:54:04;;;;;;;6.67;6.27;;;16.30;99.90;;;;;;10259084;28;20235;-81
2022/04/30 12:59:07;;;;;;;6.70;6.30;;;16.30;99.90;;;;;;10278002;28;20657;-80
2022/04/30 13:04:12;;;;;;;5.57;5.13;;;16.20;99.90;;;;;;10290028;28;20274;-81
2022/04/30 13:14:34;;;;;;;7.13;6.63;;;16.10;99.90;;;;;;10242672;28;20609;-82
2022/04/30 13:19:39;;;;;;;7.10;6.60;;;16.00;99.90;;;;;;10265697;28;20191;-81
2022/04/30 13:24:41;;;;;;;9.20;8.50;;;15.90;99.90;;;;;;10288848;28;20203;-81
2022/04/30 13:29:43;;;;;;;10.00;9.20;;;15.70;99.90;;;;;;10290380;28;20208;-81
2022/04/30 13:34:47;;;;;;;11.73;10.63;;;15.60;99.90;;;;;;10296889;28;20363;-81
2022/04/30 13:39:49;;;;;;;13.30;12.20;;;15.50;99.90;;;;;;10287689;28;20612;-82
2022/04/30 13:44:51;;;;;;;14.47;13.17;;;15.40;99.90;;;;;;10274227;28;20299;-81
2022/04/30 13:49:54;;;;;;;14.50;13.10;;;15.50;99.90;;;;;;10250047;28;20239;-82
2022/04/30 13:54:56;;;;;;;13.67;12.47;;;15.60;99.90;;;;;;10295984;28;20228;-83
2022/04/30 13:59:59;;;;;;;13.00;11.77;;;15.70;99.90;;;;;;10264825;28;20204;-83
2022/04/30 14:05:02;;;;;;;13.60;12.47;;;15.70;99.90;;;;;;10277063;28;20278;-83
2022/04/30 14:10:05;;;;;;;13.73;12.63;;;15.70;99.90;;;;;;10282934;28;20212;-83
2022/04/30 14:15:09;;;;;;;14.20;13.00;;;15.80;99.90;;;;;;10281870;28;20220;-82
2022/04/30 14:20:15;;;;;;;13.83;12.53;;;15.90;99.90;;;;;;10268542;28;20267;-82
2022/04/30 14:25:17;;;;;;;13.60;12.40;;;16.00;99.90;;;;;;10285094;28;20192;-84
2022/04/30 14:30:19;;;;;;;13.70;12.60;;;16.00;99.90;;;;;;10270951;28;20211;-82
2022/04/30 14:35:23;;;;;;;12.20;11.20;;;16.10;99.90;;;;;;10257488;28;20248;-82
2022/04/30 14:40:28;;;;;;;10.80;10.00;;;16.20;99.90;;;;;;10261138;28;20215;-84
2022/04/30 14:45:30;;;;;;;11.33;10.40;;;16.10;99.90;;;;;;10282307;28;20203;-82
2022/04/30 14:50:34;;;;;;;8.90;8.20;;;16.10;99.90;;;;;;10267524;28;20267;-81
2022/04/30 14:55:36;;;;;;;9.73;9.00;;;16.10;99.90;;;;;;10287882;28;20254;-81
2022/04/30 15:00:41;;;;;;;11.17;10.27;;;16.10;99.90;;;;;;10284466;28;20263;-81
2022/04/30 15:05:45;;;;;;;10.10;9.30;;;16.10;99.90;;;;;;10264192;28;20288;-82
2022/04/30 15:10:47;;;;;;;11.33;10.40;;;15.80;99.90;;;;;;10258747;28;20754;-82
2022/04/30 15:15:49;;;;;;;11.57;10.57;;;15.70;99.90;;;;;;10265447;28;20344;-82
2022/04/30 15:20:53;;;;;;;9.30;8.40;;;15.60;99.90;;;;;;10292744;28;20251;-81
2022/04/30 15:25:55;;;;;;;10.90;10.00;;;15.60;99.90;;;;;;10302307;28;20208;-81
2022/04/30 15:30:58;;;;;;;11.80;10.80;;;15.50;99.90;;;;;;10276453;28;20235;-81
2022/04/30 15:36:03;;;;;;;9.50;8.70;;;15.40;99.90;;;;;;10253531;28;20220;-81
2022/04/30 15:41:05;;;;;;;11.23;10.30;;;15.40;99.90;;;;;;10288304;28;20643;-79
2022/04/30 15:46:08;;;;;;;12.77;11.57;;;15.50;99.90;;;;;;10272605;28;20199;-80
2022/04/30 15:51:31;;;;;;;12.93;11.67;;;15.50;99.90;;;;;;10273455;28;20224;-81
2022/04/30 15:56:36;;;;;;;12.40;11.17;;;15.40;99.90;;;;;;10270979;28;20692;-81
2022/04/30 16:01:39;;;;;;;11.73;10.73;;;15.40;99.90;;;;;;10295222;28;20220;-81
2022/04/30 16:06:43;;;;;;;11.50;10.37;;;15.30;99.90;;;;;;10281921;28;20224;-81
2022/04/30 16:11:46;;;;;;;11.57;10.50;;;15.20;99.90;;;;;;10276667;28;20227;-81
2022/04/30 16:16:48;;;;;;;12.30;11.10;;;15.20;99.90;;;;;;10264996;28;20601;-81
2022/04/30 16:21:53;;;;;;;10.90;9.90;;;15.20;99.90;;;;;;10274655;28;20224;-81
2022/04/30 16:26:55;;;;;;;11.40;10.40;;;15.20;99.90;;;;;;10290851;28;20223;-82
2022/04/30 16:31:57;;;;;;;11.97;10.97;;;15.10;99.90;;;;;;10259331;28;20235;-81
2022/04/30 16:37:01;;;;;;;12.87;11.47;;;15.00;99.90;;;;;;10246358;28;20215;-82
2022/04/30 16:42:04;;;;;;;12.50;11.30;;;15.00;99.90;;;;;;10279546;28;20239;-83
2022/04/30 16:47:06;;;;;;;13.30;12.20;;;14.90;99.90;;;;;;10272228;28;20239;-82
2022/04/30 16:52:22;;;;;;;12.57;11.47;;;14.90;99.90;;;;;;10279126;28;20319;-83
2022/04/30 16:57:24;;;;;;;13.93;12.73;;;14.80;99.90;;;;;;10270321;28;20650;-82
2022/04/30 17:02:27;;;;;;;14.63;13.13;;;14.70;99.90;;;;;;10304473;28;20219;-83
2022/04/30 17:07:33;;;;;;;15.10;13.70;;;14.60;99.90;;;;;;10256181;28;20207;-81
2022/04/30 17:12:35;;;;;;;14.07;12.70;;;14.60;99.90;;;;;;10276194;28;20806;-83
2022/04/30 17:17:41;;;;;;;14.20;12.80;;;14.50;99.90;;;;;;10258287;28;20609;-83
2022/04/30 17:22:46;;;;;;;14.63;13.33;;;14.40;99.90;;;;;;10270685;28;20215;-82
2022/04/30 17:27:49;;;;;;;14.03;12.80;;;14.30;99.90;;;;;;10237149;28;20200;-84
2022/04/30 17:38:12;;;;;;;14.17;12.90;;;14.20;99.90;;;;;;10255865;28;20200;-83
2022/04/30 17:43:18;;;;;;;16.03;13.97;;;14.10;99.90;;;;;;10261673;28;20443;-83
2022/04/30 17:48:21;;;;;;;16.87;15.23;;;14.10;99.90;;;;;;10278686;28;20267;-83
2022/04/30 17:53:24;;;;;;;14.67;13.37;;;14.10;99.90;;;;;;10263938;28;20223;-84
2022/04/30 17:58:26;;;;;;;15.57;14.13;;;14.00;99.90;;;;;;10255971;28;20204;-84
2022/04/30 18:03:28;;;;;;;18.40;16.70;;;13.90;99.90;;;;;;10264942;28;20224;-83
2022/04/30 18:08:32;;;;;;;17.23;15.50;;;13.80;99.90;;;;;;10260936;28;20809;-84
2022/04/30 18:13:35;;;;;;;17.50;16.00;;;13.70;99.90;;;;;;10256586;28;20626;-84
2022/04/30 18:18:39;;;;;;;18.43;16.83;;;13.60;99.90;;;;;;10260074;28;20266;-82
2022/04/30 18:23:42;;;;;;;18.50;16.80;;;13.60;99.90;;;;;;10288380;28;20215;-84
2022/04/30 18:28:48;;;;;;;20.10;18.00;;;13.60;99.90;;;;;;10267766;28;20199;-84
2022/04/30 18:33:50;;;;;;;19.70;17.90;;;13.60;99.90;;;;;;10296063;28;20235;-85
2022/04/30 18:38:54;;;;;;;16.87;15.37;;;13.50;99.90;;;;;;10274993;28;20188;-83
2022/04/30 18:43:57;;;;;;;18.63;17.00;;;13.50;99.90;;;;;;10258554;28;20712;-83
2022/04/30 18:49:01;;;;;;;20.10;18.20;;;13.40;99.90;;;;;;10266661;28;20227;-82
2022/04/30 19:04:45;;;;;;;20.50;18.50;;;13.30;99.90;;;;;;10258048;28;20220;-83
2022/04/30 19:09:48;;;;;;;19.73;17.73;;;13.30;99.90;;;;;;10296863;28;20215;-81
2022/04/30 19:14:53;;;;;;;19.97;18.00;;;13.30;99.90;;;;;;10285150;28;20687;-82
2022/04/30 19:19:55;;;;;;;18.70;17.00;;;13.30;99.90;;;;;;10282606;28;20196;-80
2022/04/30 19:24:59;;;;;;;20.00;18.03;;;13.30;99.90;;;;;;10306062;28;20220;-83
2022/04/30 19:30:02;;;;;;;17.83;16.23;;;13.30;99.90;;;;;;10310717;28;20204;-80
2022/04/30 19:35:04;;;;;;;18.20;16.50;;;13.30;99.90;;;;;;10265168;28;20228;-80
2022/04/30 19:40:10;;;;;;;19.00;17.30;;;13.30;99.90;;;;;;10281693;28;20274;-80
2022/04/30 19:45:12;;;;;;;20.10;18.20;;;13.30;99.90;;;;;;10262431;28;20203;-81
2022/04/30 19:50:15;;;;;;;20.53;18.67;;;13.30;99.90;;;;;;10270437;28;20243;-83
2022/04/30 19:55:19;;;;;;;22.27;20.00;;;13.30;99.90;;;;;;10281732;28;20657;-82
2022/04/30 20:00:23;;;;;;;19.83;18.00;;;13.30;99.90;;;;;;10299393;28;20200;-80
2022/04/30 20:05:25;;;;;;;21.17;19.17;;;13.30;99.90;;;;;;10252660;28;20208;-83
2022/04/30 20:21:07;;;;;;;21.93;19.77;;;13.20;99.90;;;;;;10254784;28;20223;-82
2022/04/30 20:26:11;;;;;;;22.60;20.40;;;13.20;99.90;;;;;;10292668;28;20200;-84
2022/04/30 20:36:42;;;;;;;21.10;19.10;;;13.20;99.90;;;;;;10276281;28;20708;-81
2022/04/30 20:41:46;;;;;;;21.20;19.00;;;13.20;99.90;;;;;;10246904;28;20699;-83
2022/04/30 20:46:48;;;;;;;22.27;20.03;;;13.20;99.90;;;;;;10267740;28;20586;-84
2022/04/30 20:51:51;;;;;;;22.97;20.73;;;13.20;99.90;;;;;;10259470;28;20232;-81
2022/04/30 20:56:54;;;;;;;23.87;21.73;;;13.20;99.90;;;;;;10277552;28;20228;-84
2022/04/30 21:01:57;;;;;;;25.10;22.70;;;13.30;99.90;;;;;;10280089;28;20235;-82
2022/04/30 21:06:59;;;;;;;23.77;21.47;;;13.20;99.90;;;;;;10263462;28;20247;-83
2022/04/30 21:12:04;;;;;;;24.97;22.30;;;13.20;99.90;;;;;;10269852;28;20231;-82
2022/04/30 21:17:07;;;;;;;24.60;22.27;;;13.20;99.90;;;;;;10276885;28;20278;-83
2022/04/30 21:22:10;;;;;;;26.63;24.03;;;13.20;99.90;;;;;;10269954;28;20228;-83
2022/04/30 21:27:14;;;;;;;30.73;27.60;;;13.20;99.90;;;;;;10267088;28;20207;-82
2022/04/30 21:32:16;;;;;;;28.63;25.60;;;13.20;99.90;;;;;;10256744;28;20232;-82
2022/04/30 21:37:19;;;;;;;27.33;24.57;;;13.20;99.90;;;;;;10306434;28;20219;-83
2022/04/30 21:42:23;;;;;;;28.13;25.43;;;13.20;99.90;;;;;;10299836;28;20704;-81
2022/04/30 21:47:25;;;;;;;27.03;24.30;;;13.20;99.90;;;;;;10264418;28;20204;-82
2022/04/30 21:52:30;;;;;;;27.60;24.67;;;13.20;99.90;;;;;;10277930;28;20228;-82
2022/04/30 22:02:55;;;;;;;28.43;25.43;;;13.20;99.90;;;;;;10267674;28;20227;-81
2022/04/30 22:07:57;;;;;;;28.93;26.10;;;13.20;99.90;;;;;;10244168;28;20211;-81
2022/04/30 22:13:03;;;;;;;26.97;24.20;;;13.20;99.90;;;;;;10247281;28;20231;-80
2022/04/30 22:18:18;;;;;;;;;;;;;;;;;;;;;
2022/04/30 22:23:28;;;;;;;28.43;25.63;;;13.20;99.90;;;;;;10258185;28;20261;-82
2022/04/30 22:28:34;;;;;;;28.70;25.70;;;13.20;99.90;;;;;;10296232;28;20207;-81
2022/04/30 22:33:37;;;;;;;28.37;25.20;;;13.20;99.90;;;;;;10257921;28;20236;-82
2022/04/30 22:38:40;;;;;;;25.70;23.13;;;13.20;99.90;;;;;;10264958;28;20199;-82
2022/04/30 22:43:43;;;;;;;26.27;23.77;;;13.20;99.90;;;;;;10257229;28;20317;-82
2022/04/30 22:48:45;;;;;;;28.13;25.33;;;13.20;99.90;;;;;;10276767;28;20550;-82
2022/04/30 22:53:47;;;;;;;27.30;24.43;;;13.20;99.90;;;;;;10263703;28;20232;-84
2022/04/30 22:58:51;;;;;;;26.60;23.80;;;13.20;99.90;;;;;;10295269;28;20229;-82
2022/04/30 23:03:54;;;;;;;26.60;23.73;;;13.20;99.90;;;;;;10292803;28;20631;-84
2022/04/30 23:08:58;;;;;;;28.30;25.40;;;13.20;99.90;;;;;;10260753;28;20204;-83
2022/04/30 23:14:01;;;;;;;25.17;22.70;;;13.20;99.90;;;;;;10285896;28;20314;-84
2022/04/30 23:19:05;;;;;;;25.83;23.30;;;13.20;99.90;;;;;;10274092;28;20200;-82
2022/04/30 23:24:08;;;;;;;25.90;23.40;;;13.20;99.90;;;;;;10263478;28;20236;-81
2022/04/30 23:29:12;;;;;;;25.93;23.33;;;13.20;99.90;;;;;;10295224;28;20204;-82
2022/04/30 23:34:15;;;;;;;26.57;23.80;;;13.20;99.90;;;;;;10325104;23;20227;-79
2022/04/30 23:39:17;;;;;;;25.67;23.13;;;13.20;99.90;;;;;;10314623;28;20285;-78
2022/04/30 23:44:21;;;;;;;29.03;25.13;;;13.20;99.90;;;;;;10343173;28;20223;-78
2022/04/30 23:49:24;;;;;;;26.20;23.60;;;13.10;99.90;;;;;;10341383;28;20195;-78
2022/04/30 23:54:26;;;;;;;24.67;22.27;;;13.10;99.90;;;;;;10321629;28;20224;-78
2022/04/30 23:59:29;;;;;;;26.63;23.93;;;13.10;99.90;;;;;;10337114;28;20195;-78
